Kassel, Germany

01:03 PM CEST on Mars 29, 2017 (GMT +0200)
Kohlenstraße | | Change Station

Elev 583 ft 51.31 °N, 9.46 °E | Updated 10 minutes ago

Molnigt
Molnigt
67.1 °F
Feels Like 67.1 °F
N
1.2
Vind Växlande Vind from NV
Gusts 6.8 miles/tim

Idag
High -- | Low -- °F
--% Chance of Precip.
Yesterday
High -- | Low -- °F
Precip. -- tum
Lufttryck 30.21 tum
Sikt 6.2 miles
Molnigt Few 4500 ft
Mestadels molnigt 5500 ft
Daggpunkt 46 °F
Luftfuktighet 46%
Rainfall 0.00 tum
Snow Depth Not available.
7:04 AM 7:50 PM
Nymåne, 3% visible
METAR EDVK 291050Z 24014KT 210V270 9999 FEW045 BKN055 15/06 Q1023
Lufttryck 30.21 tum
Sikt 6.2 miles
Molnigt Few 4500 ft
Mestadels molnigt 5500 ft
Daggpunkt 46 °F
Luftfuktighet 46%
Rainfall 0.00 tum
Snow Depth Not available.
7:04 AM 7:50 PM
Nymåne, 3% visible
METAR EDVK 291050Z 24014KT 210V270 9999 FEW045 BKN055 15/06 Q1023

Get Severe Weather Alerts

Thanks for signing up!

Be on the lookout for a verification email in your inbox.

You'll start receiving the daily forecast at 8 AM.

×

10-Day Weather Forecast

×

Almanac

Astronomi

Mar. 29, 2017 Rise Set
Actual Time
Civil Twilight
Nautical Twilight
Astronomical Twilight
Månen
Length Of Visible Light
Dagens längd
Tomorrow will be .
, % of the Moon is Illuminated

Today's Extremes

Country Highs Country Lows

Community

WunderPhotos

Upload Photos

1,962,540 photos uploaded!

WunderBlog® & News

Nearby

Air Quality

  Air Quality AQ Index Pollutant
Not available.

Snödjup

Station Depth Elevation

Earthquake Activity

Stad Distance Mag. Time & Date
Minimum magnitude displayed is 2.5.

Earthquake Activity

Stad Distance Mag. Time & Date
Minimum magnitude displayed is 2.5.

Coastal Water Temperatures

Plats Temperatur

Stations

Nearby Weather Stations

Station Location Temp Vindavkylning Daggpunkt Luftfuktighet Vind Precip. Elev Uppdaterad Type